createdAt,value
2019-02-04T00:00:30.816Z,2.50
2019-02-04T00:02:59.839Z,2.70
2019-02-04T00:05:28.462Z,2.70
2019-02-04T00:07:57.186Z,2.60
2019-02-04T00:10:25.811Z,2.70
2019-02-04T00:12:54.398Z,2.60
2019-02-04T00:15:23.026Z,2.70
2019-02-04T00:17:51.725Z,2.50
2019-02-04T00:20:20.334Z,2.40
2019-02-04T00:22:49.098Z,2.50
2019-02-04T00:25:17.724Z,2.40
2019-02-04T00:27:46.472Z,2.40
2019-02-04T00:30:20.651Z,2.20
2019-02-04T00:32:49.228Z,2.40
2019-02-04T00:35:17.848Z,2.40
2019-02-04T00:37:46.531Z,2.50
2019-02-04T00:40:24.318Z,2.50
2019-02-04T00:42:52.918Z,2.50
2019-02-04T00:45:21.618Z,2.60
2019-02-04T00:47:50.195Z,2.50
2019-02-04T00:50:20.604Z,2.60
2019-02-04T00:52:49.309Z,2.50
2019-02-04T00:55:17.929Z,2.40
2019-02-04T00:57:46.587Z,2.50
2019-02-04T01:00:18.823Z,2.60
2019-02-04T01:02:47.647Z,2.50
2019-02-04T01:05:18.886Z,2.50
2019-02-04T01:07:48.507Z,2.50
2019-02-04T01:10:22.831Z,2.60
2019-02-04T01:12:51.658Z,2.40
2019-02-04T01:15:20.458Z,2.40
2019-02-04T01:17:49.222Z,2.50
2019-02-04T01:20:20.782Z,2.40
2019-02-04T01:22:49.442Z,2.30
2019-02-04T01:25:18.336Z,2.40
2019-02-04T01:27:46.931Z,2.30
2019-02-04T01:30:23.010Z,2.30
2019-02-04T01:32:51.598Z,2.00
2019-02-04T01:35:20.436Z,2.10
2019-02-04T01:37:49.154Z,2.10
2019-02-04T01:40:20.659Z,2.20
2019-02-04T01:42:49.755Z,2.30
2019-02-04T01:45:18.430Z,2.20
2019-02-04T01:47:47.066Z,2.10
2019-02-04T01:50:18.013Z,2.10
2019-02-04T01:52:46.802Z,2.00
2019-02-04T01:55:15.656Z,2.00
2019-02-04T01:57:46.359Z,1.90
2019-02-04T02:00:20.731Z,2.00
2019-02-04T02:02:49.326Z,2.10
2019-02-04T02:05:17.925Z,2.00
2019-02-04T02:07:46.664Z,1.80
2019-02-04T02:10:20.617Z,1.90
2019-02-04T02:12:49.907Z,1.90
2019-02-04T02:15:19.037Z,1.70
2019-02-04T02:17:47.967Z,1.90
2019-02-04T02:20:21.912Z,2.00
2019-02-04T02:22:50.555Z,1.90
2019-02-04T02:25:19.298Z,2.00
2019-02-04T02:27:47.928Z,2.20
2019-02-04T02:30:22.475Z,2.30
2019-02-04T02:32:51.104Z,2.40
2019-02-04T02:35:19.691Z,2.30
2019-02-04T02:37:48.252Z,2.30
2019-02-04T02:40:22.678Z,2.20
2019-02-04T02:42:51.229Z,2.40
2019-02-04T02:45:20.184Z,2.50
2019-02-04T02:47:48.820Z,2.40
2019-02-04T02:50:17.744Z,2.30
2019-02-04T02:52:46.374Z,2.50
2019-02-04T02:55:17.304Z,2.50
2019-02-04T02:57:46.213Z,2.60
2019-02-04T03:00:18.047Z,2.60
2019-02-04T03:02:46.675Z,2.90
2019-02-04T03:05:16.703Z,2.70
2019-02-04T03:07:45.334Z,2.80
2019-02-04T03:10:17.147Z,2.80
2019-02-04T03:12:46.114Z,2.90
2019-02-04T03:15:14.942Z,3.10
2019-02-04T03:17:51.326Z,3.00
2019-02-04T03:20:14.951Z,3.00
2019-02-04T03:22:43.639Z,2.90
2019-02-04T03:25:14.404Z,2.80
2019-02-04T03:27:43.233Z,2.80
2019-02-04T03:30:14.969Z,2.80
2019-02-04T03:32:43.581Z,2.80
2019-02-04T03:35:12.577Z,2.70
2019-02-04T03:37:41.237Z,2.90
2019-02-04T03:40:18.846Z,3.10
2019-02-04T03:42:47.603Z,3.10
2019-02-04T03:45:17.780Z,3.20
2019-02-04T03:47:46.444Z,3.30
2019-02-04T03:50:15.229Z,3.40
2019-02-04T03:52:43.960Z,3.30
2019-02-04T03:55:15.167Z,3.10
2019-02-04T03:57:43.980Z,2.90
2019-02-04T04:00:18.218Z,3.00
2019-02-04T04:02:47.141Z,3.10
2019-02-04T04:05:16.044Z,3.30
2019-02-04T04:07:44.935Z,3.40
2019-02-04T04:10:14.129Z,3.20
2019-02-04T04:12:42.785Z,3.20
2019-02-04T04:15:13.449Z,3.30
2019-02-04T04:17:42.178Z,3.40
2019-02-04T04:20:13.886Z,3.40
2019-02-04T04:22:42.541Z,3.30
2019-02-04T04:25:13.701Z,3.30
2019-02-04T04:27:42.561Z,3.40
2019-02-04T04:30:14.265Z,3.40
2019-02-04T04:32:42.849Z,3.30
2019-02-04T04:35:11.945Z,3.20
2019-02-04T04:37:40.534Z,3.30
2019-02-04T04:40:11.535Z,3.50
2019-02-04T04:42:40.125Z,3.50
2019-02-04T04:45:11.693Z,3.40
2019-02-04T04:47:40.289Z,3.50
2019-02-04T04:50:09.786Z,3.30
2019-02-04T04:52:38.373Z,3.30
2019-02-04T04:55:10.681Z,3.40
2019-02-04T04:57:39.335Z,3.50
2019-02-04T05:00:10.982Z,3.40
2019-02-04T05:02:39.869Z,3.40
2019-02-04T05:05:10.870Z,3.40
2019-02-04T05:07:39.457Z,3.30
2019-02-04T05:10:16.471Z,3.30
2019-02-04T05:12:45.218Z,3.40
2019-02-04T05:15:19.782Z,3.50
2019-02-04T05:17:48.372Z,3.50
2019-02-04T05:20:17.868Z,3.60
2019-02-04T05:22:46.619Z,3.60
2019-02-04T05:25:16.011Z,3.30
2019-02-04T05:27:44.837Z,3.20
2019-02-04T05:30:15.874Z,3.20
2019-02-04T05:32:44.567Z,3.30
2019-02-04T05:35:13.480Z,3.40
2019-02-04T05:37:42.214Z,3.20
2019-02-04T05:40:18.121Z,3.10
2019-02-04T05:42:47.246Z,3.20
2019-02-04T05:45:18.241Z,3.00
2019-02-04T05:47:46.799Z,3.00
2019-02-04T05:50:17.662Z,3.10
2019-02-04T05:52:47.377Z,3.00
2019-02-04T05:55:17.405Z,3.10
2019-02-04T05:57:46.179Z,3.10
2019-02-04T06:00:23.120Z,3.10
2019-02-04T06:02:51.682Z,3.20
2019-02-04T06:05:20.706Z,3.00
2019-02-04T06:07:49.317Z,3.00
2019-02-04T06:10:18.209Z,3.20
2019-02-04T06:12:46.785Z,3.20
2019-02-04T06:15:16.827Z,3.00
2019-02-04T06:17:45.445Z,3.10
2019-02-04T06:20:19.941Z,3.10
2019-02-04T06:22:48.569Z,3.00
2019-02-04T06:25:17.229Z,3.10
2019-02-04T06:27:45.854Z,3.20
2019-02-04T06:30:16.089Z,3.20
2019-02-04T06:32:44.660Z,3.20
2019-02-04T06:35:14.677Z,3.10
2019-02-04T06:37:43.314Z,3.00
2019-02-04T06:40:16.677Z,3.10
2019-02-04T06:42:45.501Z,3.10
2019-02-04T06:45:16.399Z,2.90
2019-02-04T06:47:45.115Z,2.90
2019-02-04T06:50:16.405Z,3.10
2019-02-04T06:52:45.123Z,3.10
2019-02-04T06:55:19.648Z,3.00
2019-02-04T06:57:48.222Z,2.90
2019-02-04T07:00:19.973Z,2.90
2019-02-04T07:02:48.697Z,2.90
2019-02-04T07:05:18.097Z,2.90
2019-02-04T07:07:46.660Z,3.20
2019-02-04T07:10:21.074Z,3.00
2019-02-04T07:12:49.740Z,3.10
2019-02-04T07:15:18.410Z,3.10
2019-02-04T07:17:46.961Z,3.40
2019-02-04T07:20:24.137Z,3.50
2019-02-04T07:22:52.947Z,3.50
2019-02-04T07:25:22.381Z,3.50
2019-02-04T07:27:51.208Z,3.30
2019-02-04T07:30:24.858Z,3.30
2019-02-04T07:32:54.087Z,3.50
2019-02-04T07:35:23.027Z,3.70
2019-02-04T07:37:51.645Z,3.50
2019-02-04T07:40:22.946Z,3.60
2019-02-04T07:42:52.763Z,3.50
2019-02-04T07:45:21.409Z,3.30
2019-02-04T07:47:50.337Z,3.10
2019-02-04T07:50:18.931Z,3.40
2019-02-04T07:52:47.628Z,3.30
2019-02-04T07:55:16.209Z,3.40
2019-02-04T07:57:44.830Z,3.20
2019-02-04T08:00:16.435Z,3.30
2019-02-04T08:02:46.029Z,3.60
2019-02-04T08:05:14.931Z,3.70
2019-02-04T08:07:43.653Z,3.80
2019-02-04T08:10:14.561Z,3.80
2019-02-04T08:12:43.219Z,4.00
2019-02-04T08:15:17.389Z,3.60
2019-02-04T08:17:46.045Z,3.70
2019-02-04T08:20:15.249Z,3.70
2019-02-04T08:22:43.902Z,3.50
2019-02-04T08:25:14.694Z,3.90
2019-02-04T08:27:43.357Z,4.00
2019-02-04T08:30:23.683Z,4.10
2019-02-04T08:32:52.349Z,4.20
2019-02-04T08:35:21.078Z,4.10
2019-02-04T08:37:49.729Z,4.00
2019-02-04T08:40:19.485Z,4.20
2019-02-04T08:42:48.016Z,3.80
2019-02-04T08:45:17.026Z,3.70
2019-02-04T08:47:46.043Z,3.90
2019-02-04T08:50:25.602Z,3.90
2019-02-04T08:52:54.569Z,3.80
2019-02-04T08:55:23.207Z,3.60
2019-02-04T08:57:52.233Z,3.60
2019-02-04T09:00:24.784Z,3.60
2019-02-04T09:02:53.439Z,3.70
2019-02-04T09:05:23.439Z,3.80
2019-02-04T09:07:52.107Z,3.70
2019-02-04T09:10:26.533Z,3.90
2019-02-04T09:12:55.493Z,4.00
2019-02-04T09:15:24.045Z,4.00
2019-02-04T09:17:52.700Z,4.00
2019-02-04T09:20:21.393Z,3.70
2019-02-04T09:22:50.078Z,3.70
2019-02-04T09:25:23.694Z,3.70
2019-02-04T09:27:52.913Z,3.70
2019-02-04T09:30:26.257Z,3.70
2019-02-04T09:32:55.485Z,4.20
2019-02-04T09:35:24.373Z,4.60
2019-02-04T09:37:53.232Z,4.40
2019-02-04T09:40:36.670Z,5.00
2019-02-04T09:43:05.594Z,5.30
2019-02-04T09:45:34.221Z,5.30
2019-02-04T09:48:03.450Z,5.40
2019-02-04T09:50:37.927Z,6.00
2019-02-04T09:53:06.705Z,6.80
2019-02-04T09:55:37.297Z,7.40
2019-02-04T09:58:06.526Z,7.90
2019-02-04T10:00:36.321Z,7.50
2019-02-04T10:03:06.351Z,8.20
2019-02-04T10:05:35.337Z,8.90
2019-02-04T10:08:04.797Z,7.40
2019-02-04T10:10:33.624Z,7.20
2019-02-04T10:13:02.297Z,9.40
2019-02-04T10:15:39.600Z,11.20
2019-02-04T10:18:08.701Z,12.40
2019-02-04T10:20:37.571Z,13.10
2019-02-04T10:23:07.649Z,12.60
2019-02-04T10:25:39.279Z,9.30
2019-02-04T10:28:08.729Z,8.10
2019-02-04T10:30:37.530Z,7.50
2019-02-04T10:33:06.055Z,7.30
2019-02-04T10:35:34.926Z,6.30
2019-02-04T10:38:03.806Z,7.10
2019-02-04T10:40:32.459Z,10.40
2019-02-04T10:43:01.423Z,12.40
2019-02-04T10:45:30.132Z,13.50
2019-02-04T10:47:58.727Z,11.90
2019-02-04T10:50:45.083Z,9.90
2019-02-04T10:53:03.963Z,10.20
2019-02-04T10:55:32.661Z,11.90
2019-02-04T10:58:01.294Z,13.40
2019-02-04T11:00:32.658Z,15.10
2019-02-04T11:03:01.448Z,14.90
2019-02-04T11:05:32.486Z,16.00
2019-02-04T11:08:01.158Z,15.50
2019-02-04T11:10:34.382Z,14.30
2019-02-04T11:13:05.379Z,11.80
2019-02-04T11:15:33.974Z,9.60
2019-02-04T11:18:02.605Z,9.20
2019-02-04T11:20:32.949Z,9.60
2019-02-04T11:23:01.623Z,9.20
2019-02-04T11:25:30.275Z,8.70
2019-02-04T11:27:58.903Z,8.20
2019-02-04T11:30:30.346Z,9.30
2019-02-04T11:32:59.334Z,9.30
2019-02-04T11:35:27.989Z,9.10
2019-02-04T11:37:56.635Z,9.50
2019-02-04T11:40:30.801Z,9.90
2019-02-04T11:42:59.433Z,12.30
2019-02-04T11:45:28.867Z,15.00
2019-02-04T11:47:57.550Z,16.90
2019-02-04T11:50:26.239Z,17.20
2019-02-04T11:52:54.830Z,17.30
2019-02-04T11:55:23.522Z,15.20
2019-02-04T11:57:52.106Z,14.40
2019-02-04T12:00:25.876Z,14.80
2019-02-04T12:02:55.498Z,16.20
2019-02-04T12:05:24.434Z,16.20
2019-02-04T12:07:53.666Z,14.90
2019-02-04T12:10:27.994Z,15.50
2019-02-04T12:12:56.645Z,15.60
2019-02-04T12:15:25.939Z,16.90
2019-02-04T12:17:54.526Z,17.90
2019-02-04T12:20:23.232Z,16.60
2019-02-04T12:22:51.871Z,16.70
2019-02-04T12:25:25.618Z,16.70
2019-02-04T12:27:55.830Z,17.20
2019-02-04T12:30:31.141Z,17.20
2019-02-04T12:33:00.787Z,17.50
2019-02-04T12:35:29.695Z,17.20
2019-02-04T12:37:58.350Z,17.90
2019-02-04T12:40:27.746Z,16.20
2019-02-04T12:42:56.398Z,16.80
2019-02-04T12:45:27.962Z,15.80
2019-02-04T12:47:57.186Z,16.40
2019-02-04T12:50:25.812Z,17.00
2019-02-04T12:52:54.677Z,16.80
2019-02-04T12:55:30.627Z,17.10
2019-02-04T12:57:59.224Z,15.60
2019-02-04T13:00:32.026Z,15.50
2019-02-04T13:03:00.610Z,15.40
2019-02-04T13:05:32.579Z,15.40
2019-02-04T13:08:01.322Z,16.20
2019-02-04T13:10:29.934Z,16.40
2019-02-04T13:12:58.670Z,16.30
2019-02-04T13:15:27.373Z,17.40
2019-02-04T13:17:55.966Z,16.40
2019-02-04T13:20:24.658Z,16.70
2019-02-04T13:22:53.321Z,15.90
2019-02-04T13:25:24.952Z,16.50
2019-02-04T13:27:53.684Z,15.40
2019-02-04T13:30:27.433Z,15.60
2019-02-04T13:32:56.457Z,15.30
2019-02-04T13:35:25.199Z,15.80
2019-02-04T13:37:54.286Z,16.20
2019-02-04T13:40:27.309Z,16.20
2019-02-04T13:42:56.235Z,16.90
2019-02-04T13:45:25.341Z,16.90
2019-02-04T13:47:54.763Z,17.00
2019-02-04T13:50:24.157Z,17.20
2019-02-04T13:52:53.388Z,17.70
2019-02-04T13:55:27.270Z,16.40
2019-02-04T13:57:55.850Z,15.70
2019-02-04T14:00:27.222Z,15.70
2019-02-04T14:02:59.542Z,15.20
2019-02-04T14:05:30.947Z,14.40
2019-02-04T14:07:58.323Z,14.60
2019-02-04T14:10:32.526Z,16.30
2019-02-04T14:13:01.182Z,15.20
2019-02-04T14:15:30.278Z,15.50
2019-02-04T14:17:59.167Z,15.90
2019-02-04T14:20:27.790Z,15.40
2019-02-04T14:22:56.722Z,16.50
2019-02-04T14:25:25.424Z,17.50
2019-02-04T14:27:54.098Z,17.70
2019-02-04T14:30:31.879Z,16.40
2019-02-04T14:33:00.594Z,17.10
2019-02-04T14:35:29.324Z,17.00
2019-02-04T14:37:59.044Z,16.10
2019-02-04T14:40:27.680Z,17.00
2019-02-04T14:42:59.881Z,17.70
2019-02-04T14:45:53.380Z,17.10
2019-02-04T14:48:37.194Z,17.70
2019-02-04T14:51:31.854Z,15.60
2019-02-04T14:54:37.598Z,16.10
2019-02-04T14:57:19.253Z,16.50
2019-02-04T14:59:50.934Z,16.40
2019-02-04T15:02:31.337Z,16.40
2019-02-04T15:05:03.053Z,14.50
2019-02-04T15:07:55.834Z,13.90
2019-02-04T15:10:33.394Z,13.30
2019-02-04T15:13:39.868Z,12.20
2019-02-04T15:16:14.458Z,10.90
2019-02-04T15:19:08.754Z,10.60
2019-02-04T15:21:58.262Z,10.10
2019-02-04T15:24:56.658Z,9.40
2019-02-04T15:27:34.446Z,9.50
2019-02-04T15:30:33.715Z,9.50
2019-02-04T15:33:08.214Z,9.30
2019-02-04T15:35:58.018Z,8.80
2019-02-04T15:38:35.482Z,8.70
2019-02-04T15:41:09.804Z,8.70
2019-02-04T15:43:41.670Z,8.70
2019-02-04T15:46:16.025Z,8.60
2019-02-04T15:49:12.183Z,8.00
2019-02-04T15:51:42.802Z,8.10
2019-02-04T15:54:11.366Z,7.90
2019-02-04T15:56:39.951Z,7.80
2019-02-04T15:59:08.499Z,7.40
2019-02-04T16:01:37.122Z,7.50
2019-02-04T16:04:26.174Z,7.20
2019-02-04T16:06:54.763Z,7.00
2019-02-04T16:09:23.318Z,7.20
2019-02-04T16:11:51.930Z,7.20
2019-02-04T16:14:20.486Z,7.30
2019-02-04T16:16:49.438Z,7.50
2019-02-04T16:19:17.990Z,7.40
2019-02-04T16:21:46.591Z,7.20
2019-02-04T16:24:15.210Z,6.80
2019-02-04T16:26:43.802Z,7.00
2019-02-04T16:29:12.382Z,7.00
2019-02-04T16:31:41.007Z,6.70
2019-02-04T16:34:09.651Z,7.10
2019-02-04T16:36:38.202Z,7.00
2019-02-04T16:39:10.634Z,7.00
2019-02-04T16:41:39.262Z,7.00
2019-02-04T16:44:08.383Z,6.60
2019-02-04T16:46:37.078Z,6.50
2019-02-04T16:49:05.751Z,6.30
2019-02-04T16:51:34.380Z,6.40
2019-02-04T16:54:03.038Z,6.20
2019-02-04T16:56:31.662Z,6.20
2019-02-04T16:59:00.328Z,6.20
2019-02-04T17:01:29.141Z,6.10
2019-02-04T17:03:58.026Z,6.20
2019-02-04T17:06:26.586Z,5.70
2019-02-04T17:08:55.246Z,5.50
2019-02-04T17:11:23.803Z,5.60
2019-02-04T17:13:52.397Z,5.60
2019-02-04T17:16:20.953Z,5.60
2019-02-04T17:18:49.931Z,5.60
2019-02-04T17:21:18.653Z,5.50
2019-02-04T17:23:47.307Z,5.60
2019-02-04T17:26:15.858Z,5.60
2019-02-04T17:28:44.449Z,5.70
2019-02-04T17:31:12.995Z,5.80
2019-02-04T17:33:41.618Z,5.60
2019-02-04T17:36:10.242Z,5.40
2019-02-04T17:38:38.829Z,5.30
2019-02-04T17:41:07.742Z,5.20
2019-02-04T17:43:36.415Z,5.20
2019-02-04T17:46:05.292Z,4.90
2019-02-04T17:48:34.077Z,4.50
2019-02-04T17:51:02.840Z,4.70
2019-02-04T17:53:34.348Z,5.00
2019-02-04T17:56:02.514Z,5.10
2019-02-04T17:58:31.098Z,5.20
2019-02-04T18:00:59.647Z,5.20
2019-02-04T18:03:28.236Z,5.00
2019-02-04T18:05:57.195Z,5.00
2019-02-04T18:08:25.846Z,5.10
2019-02-04T18:10:54.413Z,4.90
2019-02-04T18:13:22.998Z,4.60
2019-02-04T18:15:51.739Z,4.80
2019-02-04T18:18:20.328Z,4.70
2019-02-04T18:20:49.186Z,4.70
2019-02-04T18:23:17.750Z,4.80
2019-02-04T18:25:46.346Z,4.90
2019-02-04T18:28:14.973Z,4.90
2019-02-04T18:30:43.635Z,4.70
2019-02-04T18:33:12.255Z,4.70
2019-02-04T18:35:41.238Z,4.80
2019-02-04T18:38:09.914Z,4.70
2019-02-04T18:40:38.500Z,4.60
2019-02-04T18:43:07.061Z,4.60
2019-02-04T18:45:36.187Z,4.70
2019-02-04T18:48:06.078Z,4.60
2019-02-04T18:50:34.866Z,4.60
2019-02-04T18:53:03.792Z,4.60
2019-02-04T18:55:33.815Z,4.50
2019-02-04T18:58:02.373Z,4.50
2019-02-04T19:00:32.719Z,4.50
2019-02-04T19:03:03.030Z,4.50
2019-02-04T19:05:31.847Z,4.50
2019-02-04T19:08:00.406Z,4.50
2019-02-04T19:10:29.138Z,4.50
2019-02-04T19:12:57.702Z,4.30
2019-02-04T19:15:28.062Z,4.40
2019-02-04T19:18:02.650Z,4.20
2019-02-04T19:20:31.315Z,4.20
2019-02-04T19:22:59.871Z,4.10
2019-02-04T19:25:28.587Z,4.20
2019-02-04T19:27:57.206Z,4.00
2019-02-04T19:30:41.479Z,3.70
2019-02-04T19:33:10.030Z,3.70
2019-02-04T19:35:38.690Z,3.70
2019-02-04T19:38:07.395Z,3.90
2019-02-04T19:40:35.997Z,4.00
2019-02-04T19:43:05.097Z,3.90
2019-02-04T19:45:34.153Z,3.80
2019-02-04T19:48:03.272Z,3.80
2019-02-04T19:50:34.290Z,3.80
2019-02-04T19:53:02.920Z,3.80
2019-02-04T19:55:31.588Z,3.70
2019-02-04T19:58:00.284Z,3.70
2019-02-04T20:00:29.353Z,3.70
2019-02-04T20:02:57.902Z,3.80
2019-02-04T20:05:31.382Z,3.70
2019-02-04T20:08:00.285Z,3.60
2019-02-04T20:10:32.059Z,3.60
2019-02-04T20:13:00.959Z,3.60
2019-02-04T20:15:31.290Z,3.50
2019-02-04T20:18:00.300Z,3.30
2019-02-04T20:20:29.415Z,3.40
2019-02-04T20:22:58.510Z,3.50
2019-02-04T20:25:29.710Z,3.50
2019-02-04T20:27:58.509Z,3.50
2019-02-04T20:30:45.365Z,3.30
2019-02-04T20:33:06.570Z,3.20
2019-02-04T20:35:35.227Z,3.30
2019-02-04T20:38:04.258Z,3.10
2019-02-04T20:40:32.843Z,3.20
2019-02-04T20:43:01.776Z,3.10
2019-02-04T20:45:30.611Z,3.00
2019-02-04T20:47:59.420Z,2.90
2019-02-04T20:50:33.927Z,3.00
2019-02-04T20:53:02.631Z,2.90
2019-02-04T20:55:31.295Z,2.70
2019-02-04T20:58:00.222Z,2.80
2019-02-04T21:00:30.255Z,3.00
2019-02-04T21:03:01.825Z,2.90
2019-02-04T21:05:29.390Z,3.10
2019-02-04T21:07:58.058Z,3.20
2019-02-04T21:10:30.754Z,3.10
2019-02-04T21:12:59.450Z,3.10
2019-02-04T21:15:28.144Z,3.10
2019-02-04T21:17:56.673Z,3.00
2019-02-04T21:20:29.308Z,2.80
2019-02-04T21:22:57.954Z,3.00
2019-02-04T21:25:26.778Z,2.60
2019-02-04T21:27:55.413Z,2.70
2019-02-04T21:30:32.849Z,2.70
2019-02-04T21:33:01.474Z,2.80
2019-02-04T21:35:30.059Z,2.90
2019-02-04T21:37:58.606Z,2.80
2019-02-04T21:40:27.663Z,2.40
2019-02-04T21:42:56.222Z,2.50
2019-02-04T21:45:26.155Z,2.50
2019-02-04T21:47:55.075Z,2.50
2019-02-04T21:50:29.111Z,2.40
2019-02-04T21:52:58.598Z,2.40
2019-02-04T21:55:27.554Z,2.20
2019-02-04T21:57:56.176Z,1.70
2019-02-04T22:00:28.459Z,1.70
2019-02-04T22:02:57.078Z,2.10
2019-02-04T22:05:28.111Z,2.20
2019-02-04T22:07:56.806Z,2.40
2019-02-04T22:10:27.535Z,2.50
2019-02-04T22:12:56.167Z,2.50
2019-02-04T22:15:25.190Z,2.50
2019-02-04T22:17:53.750Z,2.50
2019-02-04T22:20:23.069Z,2.50
2019-02-04T22:22:52.667Z,2.40
2019-02-04T22:25:23.187Z,2.30
2019-02-04T22:27:51.887Z,2.40
2019-02-04T22:30:28.669Z,2.30
2019-02-04T22:32:57.291Z,2.10
2019-02-04T22:35:25.923Z,2.30
2019-02-04T22:37:54.623Z,2.20
2019-02-04T22:40:25.452Z,2.30
2019-02-04T22:42:54.007Z,2.30
2019-02-04T22:45:22.824Z,2.30
2019-02-04T22:47:51.722Z,2.40
2019-02-04T22:50:22.243Z,2.40
2019-02-04T22:52:51.134Z,2.50
2019-02-04T22:55:31.003Z,2.40
2019-02-04T22:57:50.927Z,2.30
2019-02-04T23:00:51.479Z,2.30
2019-02-04T23:03:26.134Z,2.30
2019-02-04T23:05:54.727Z,2.00
2019-02-04T23:08:23.282Z,2.00
2019-02-04T23:10:51.934Z,1.90
2019-02-04T23:13:20.481Z,1.90
2019-02-04T23:15:49.066Z,2.30
2019-02-04T23:18:17.620Z,2.30
2019-02-04T23:20:46.199Z,2.40
2019-02-04T23:23:14.750Z,2.20
2019-02-04T23:25:43.949Z,2.00
2019-02-04T23:28:12.659Z,2.10
2019-02-04T23:30:41.314Z,2.20
2019-02-04T23:33:09.892Z,2.20
2019-02-04T23:35:38.522Z,2.20
2019-02-04T23:38:07.211Z,2.20
2019-02-04T23:40:35.861Z,2.50
2019-02-04T23:43:05.046Z,2.40
2019-02-04T23:45:33.630Z,2.20
2019-02-04T23:48:02.463Z,1.70
2019-02-04T23:50:31.106Z,1.90
2019-02-04T23:52:59.659Z,1.70
2019-02-04T23:55:28.233Z,1.60
2019-02-04T23:57:57.054Z,1.50
